Flag for India

Past Weather in 23°04'07.1"N, 72°38'55.8"E, India — Yesterday and Last 2 Weeks

Currently: 75 °F. Passing clouds. (Weather station: Ahmadabad Airport, India). See more current weather

Past Weather in 23°04'07.1"N, 72°38'55.8"E — Graph

°F

23°04'07.1"N, 72°38'55.8"E Temperature Yesterday

Maximum temperature yesterday: 88 °F (at 1:00 pm)
Minimum temperature yesterday: 63 °F (at 4:30 am)
Average temperature yesterday: 75 °F

High & Low Weather Summary for the Past Weeks

 TemperatureHumidityPressure
High93 °F (Nov 23, 1:30 pm)94% (Nov 23, 6:00 am)30.04 "Hg (Nov 23, 6:00 am)
Low57 °F (Nov 25, 7:00 am)18% (Nov 28, 4:00 pm)29.71 "Hg (Nov 19, 2:00 pm)
Average76 °F53%29.86 "Hg
* Reported Nov 15 6:30 pm — Nov 30 6:30 pm, 23°04'07.1"N, 72°38'55.8"E. Weather by CustomWeather, © 2021

Note: Actual official high and low records may vary slightly from our data, if they occured in-between our weather recording intervals... More about our weather records

23°04'07.1"N, 72°38'55.8"E Weather History for the Previous 24 Hours

Scroll right to see more
 ConditionsComfort  
Time TempWeatherWind HumidityBarometerVisibility
6:30 pm
Tue, Nov 30
77 °FPassing clouds.7 mph36%29.89 "Hg2 mi
6:00 pm79 °FScattered clouds.6 mph34%29.89 "Hg2 mi
5:30 pm81 °FScattered clouds.6 mph32%29.89 "Hg3 mi
5:00 pm81 °FScattered clouds.7 mph32%29.89 "Hg3 mi
4:30 pm82 °FScattered clouds.8 mph30%29.89 "Hg3 mi
4:00 pm82 °FScattered clouds.5 mph28%29.89 "Hg3 mi
3:30 pm82 °FScattered clouds.6 mph28%29.89 "Hg3 mi
3:00 pm84 °FScattered clouds.6 mph27%29.89 "Hg3 mi
2:30 pm84 °FScattered clouds.7 mph27%29.89 "Hg3 mi
2:00 pm84 °FPassing clouds.8 mph29%29.92 "Hg3 mi
1:30 pm84 °FPassing clouds.6 mph29%29.92 "Hg3 mi
1:00 pm84 °FPassing clouds.7 mph29%29.95 "Hg3 mi
12:30 pm84 °FPassing clouds.8 mph29%29.98 "Hg3 mi
12:00 pm82 °FPassing clouds.8 mph32%29.98 "Hg3 mi
11:30 am81 °FPassing clouds.7 mph32%30.01 "Hg3 mi
11:00 am79 °FPassing clouds.9 mph34%30.01 "Hg3 mi
10:30 am77 °FPassing clouds.8 mph36%30.04 "Hg3 mi
10:00 am73 °FPassing clouds.7 mph41%30.01 "Hg3 mi
9:30 am72 °FPassing clouds.10 mph44%30.01 "Hg2 mi
9:00 am70 °FPassing clouds.8 mph46%30.01 "Hg2 mi
8:30 am68 °FPassing clouds.7 mph49%30.01 "Hg2 mi
8:00 am66 °FPassing clouds.7 mph52%30.01 "Hg2 mi
7:30 am64 °FPassing clouds.6 mph56%29.98 "Hg2 mi
7:00 am64 °FPassing clouds.7 mph56%29.98 "Hg2 mi
6:30 am64 °FPassing clouds.6 mph56%29.95 "Hg2 mi
6:00 am64 °FPassing clouds.6 mph56%29.95 "Hg2 mi
5:30 am66 °FPassing clouds.6 mph52%29.95 "Hg2 mi
5:00 am64 °FPassing clouds.5 mph56%29.92 "Hg2 mi
4:30 am66 °FPassing clouds.6 mph52%29.92 "Hg2 mi
3:30 am66 °FPassing clouds.5 mph52%29.92 "Hg2 mi
3:00 am66 °FPassing clouds.5 mph52%29.95 "Hg2 mi
2:30 am68 °FPassing clouds.5 mph53%29.95 "Hg2 mi
2:00 am68 °FPassing clouds.5 mph49%29.95 "Hg2 mi
1:30 am68 °FPassing clouds.5 mph49%29.95 "Hg2 mi
1:00 am70 °FPassing clouds.5 mph50%29.95 "Hg2 mi
12:30 am70 °FPassing clouds.6 mph50%29.95 "Hg2 mi
11:30 pm
Mon, Nov 29
73 °FPassing clouds.6 mph41%29.98 "Hg2 mi
11:00 pm73 °FPassing clouds.6 mph41%29.98 "Hg2 mi
10:30 pm73 °FPassing clouds.7 mph41%29.98 "Hg2 mi
10:00 pm75 °FPassing clouds.6 mph39%29.98 "Hg2 mi
9:30 pm75 °FPassing clouds.6 mph39%29.98 "Hg2 mi
9:00 pm75 °FClear.5 mph39%29.98 "Hg2 mi
8:30 pm73 °FClear.3 mph41%29.98 "Hg2 mi
8:00 pm75 °FClear.3 mph39%29.98 "Hg2 mi
Weather by CustomWeather, © 2021

See weather overview